createdAt,value
2022-12-16T00:01:13.357Z,24.23
2022-12-16T00:03:42.583Z,25.70
2022-12-16T00:06:11.072Z,24.60
2022-12-16T00:08:40.447Z,24.30
2022-12-16T00:11:09.245Z,23.80
2022-12-16T00:13:40.236Z,23.38
2022-12-16T00:16:11.216Z,20.90
2022-12-16T00:18:39.300Z,21.70
2022-12-16T00:21:07.334Z,19.88
2022-12-16T00:26:04.471Z,18.33
2022-12-16T00:28:32.605Z,18.23
2022-12-16T00:31:00.593Z,17.70
2022-12-16T00:33:30.018Z,16.10
2022-12-16T00:35:58.291Z,16.10
2022-12-16T00:38:27.864Z,14.90
2022-12-16T00:40:55.605Z,15.07
2022-12-16T00:43:23.516Z,14.67
2022-12-16T00:45:52.001Z,13.10
2022-12-16T00:48:22.876Z,13.13
2022-12-16T00:50:55.069Z,12.83
2022-12-16T00:53:24.085Z,10.77
2022-12-16T00:55:51.838Z,10.45
2022-12-16T00:58:19.734Z,9.67
2022-12-16T01:00:47.400Z,10.53
2022-12-16T01:03:19.602Z,8.53
2022-12-16T01:05:49.619Z,8.57
2022-12-16T01:08:18.639Z,9.03
2022-12-16T01:10:51.369Z,6.90
2022-12-16T01:13:20.899Z,7.00
2022-12-16T01:15:49.064Z,6.57
2022-12-16T01:18:16.828Z,6.03
2022-12-16T01:20:44.642Z,5.50
2022-12-16T01:23:12.508Z,5.13
2022-12-16T01:25:41.433Z,5.20
2022-12-16T01:30:36.749Z,5.53
2022-12-16T01:33:04.880Z,5.20
2022-12-16T01:38:20.451Z,5.20
2022-12-16T01:40:49.411Z,5.10
2022-12-16T01:45:45.697Z,5.07
2022-12-16T01:48:21.907Z,6.20
2022-12-16T01:50:51.717Z,5.17
2022-12-16T01:53:21.385Z,5.43
2022-12-16T01:55:52.042Z,5.57
2022-12-16T01:58:23.738Z,6.43
2022-12-16T02:00:51.818Z,5.93
2022-12-16T02:03:20.009Z,6.28
2022-12-16T02:05:49.354Z,6.50
2022-12-16T02:08:18.821Z,6.27
2022-12-16T02:11:01.924Z,6.10
2022-12-16T02:13:39.757Z,6.60
2022-12-16T02:16:17.226Z,6.13
2022-12-16T02:18:53.877Z,7.38
2022-12-16T02:21:48.725Z,7.40
2022-12-16T02:24:44.541Z,7.20
2022-12-16T02:27:50.072Z,7.20
2022-12-16T02:30:28.709Z,7.53
2022-12-16T02:33:09.170Z,6.32
2022-12-16T02:35:42.809Z,6.80
2022-12-16T02:38:22.859Z,6.37
2022-12-16T02:40:56.431Z,7.50
2022-12-16T02:43:42.961Z,7.47
2022-12-16T02:46:12.919Z,7.43
2022-12-16T02:48:40.627Z,7.67
2022-12-16T02:51:08.322Z,8.20
2022-12-16T02:53:39.753Z,7.60
2022-12-16T02:56:19.441Z,7.07
2022-12-16T02:58:53.188Z,7.90
2022-12-16T03:01:32.036Z,6.90
2022-12-16T03:04:06.374Z,8.33
2022-12-16T03:06:36.527Z,8.07
2022-12-16T03:09:10.032Z,7.50
2022-12-16T03:11:41.186Z,7.17
2022-12-16T03:14:13.549Z,7.83
2022-12-16T03:16:43.344Z,7.93
2022-12-16T03:19:12.726Z,7.87
2022-12-16T03:21:46.497Z,8.30
2022-12-16T03:24:15.457Z,7.63
2022-12-16T03:29:17.533Z,7.90
2022-12-16T03:31:50.754Z,8.30
2022-12-16T03:34:28.861Z,7.53
2022-12-16T03:37:01.420Z,8.18
2022-12-16T03:39:30.839Z,8.27
2022-12-16T03:41:59.812Z,7.80
2022-12-16T03:46:56.933Z,8.32
2022-12-16T03:49:24.835Z,7.60
2022-12-16T03:51:53.626Z,7.90
2022-12-16T03:56:49.006Z,7.13
2022-12-16T03:59:16.708Z,7.70
2022-12-16T04:01:44.518Z,7.43
2022-12-16T04:04:13.841Z,7.60
2022-12-16T04:06:41.440Z,7.33
2022-12-16T04:09:09.086Z,8.60
2022-12-16T04:11:54.314Z,7.73
2022-12-16T04:14:39.704Z,7.77
2022-12-16T04:17:25.151Z,7.13
2022-12-16T04:20:11.962Z,7.13
2022-12-16T04:23:00.496Z,7.13
2022-12-16T04:25:31.732Z,6.63
2022-12-16T04:27:59.597Z,7.00
2022-12-16T04:30:28.867Z,7.17
2022-12-16T04:33:17.412Z,7.67
2022-12-16T04:36:03.936Z,6.72
2022-12-16T04:38:49.628Z,8.07
2022-12-16T04:41:35.413Z,7.37
2022-12-16T04:44:20.880Z,7.10
2022-12-16T04:47:06.209Z,6.73
2022-12-16T04:49:51.620Z,6.97
2022-12-16T04:52:38.251Z,7.47
2022-12-16T04:55:24.948Z,7.13
2022-12-16T04:58:10.971Z,7.23
2022-12-16T05:00:56.250Z,7.03
2022-12-16T05:03:41.573Z,7.17
2022-12-16T05:06:27.242Z,7.00
2022-12-16T05:09:13.777Z,6.90
2022-12-16T05:11:59.730Z,6.73
2022-12-16T05:14:45.096Z,6.90
2022-12-16T05:17:30.379Z,7.57
2022-12-16T05:20:15.876Z,7.63
2022-12-16T05:23:01.153Z,6.63
2022-12-16T05:25:47.788Z,7.10
2022-12-16T05:28:33.282Z,6.33
2022-12-16T05:31:18.813Z,6.67
2022-12-16T05:34:04.077Z,7.10
2022-12-16T05:36:49.371Z,6.90
2022-12-16T05:39:34.757Z,6.97
2022-12-16T05:42:21.318Z,6.87
2022-12-16T05:45:08.873Z,7.17
2022-12-16T05:47:54.377Z,6.80
2022-12-16T05:50:39.750Z,7.00
2022-12-16T05:53:25.089Z,8.37
2022-12-16T05:56:18.885Z,9.37
2022-12-16T05:59:05.657Z,8.77
2022-12-16T06:01:50.835Z,8.57
2022-12-16T06:04:35.931Z,8.37
2022-12-16T06:07:20.948Z,8.30
2022-12-16T06:10:06.303Z,8.53
2022-12-16T06:12:51.390Z,8.03
2022-12-16T06:15:37.820Z,7.43
2022-12-16T06:18:23.246Z,7.27
2022-12-16T06:21:08.264Z,7.53
2022-12-16T06:23:53.416Z,7.77
2022-12-16T06:26:38.471Z,7.43
2022-12-16T06:29:23.626Z,8.10
2022-12-16T06:32:10.152Z,7.20
2022-12-16T06:35:06.589Z,7.13
2022-12-16T06:37:51.783Z,6.57
2022-12-16T06:40:36.885Z,7.07
2022-12-16T06:43:22.143Z,6.13
2022-12-16T06:46:07.276Z,5.77
2022-12-16T06:48:53.925Z,6.30
2022-12-16T06:51:39.236Z,6.33
2022-12-16T06:54:24.369Z,6.27
2022-12-16T06:57:09.558Z,5.93
2022-12-16T06:59:54.056Z,6.60
2022-12-16T07:02:39.466Z,5.87
2022-12-16T07:05:26.865Z,5.17
2022-12-16T07:08:12.038Z,5.97
2022-12-16T07:11:08.990Z,5.40
2022-12-16T07:14:00.418Z,5.53
2022-12-16T07:16:45.777Z,5.40
2022-12-16T07:19:31.074Z,5.17
2022-12-16T07:22:17.831Z,5.50
2022-12-16T07:25:03.203Z,5.57
2022-12-16T07:27:48.467Z,5.00
2022-12-16T07:30:33.833Z,4.87
2022-12-16T07:33:19.198Z,5.00
2022-12-16T07:36:04.225Z,4.97
2022-12-16T07:38:51.303Z,4.80
2022-12-16T07:41:36.659Z,4.83
2022-12-16T07:44:22.082Z,5.10
2022-12-16T07:47:07.459Z,4.63
2022-12-16T07:49:53.671Z,4.70
2022-12-16T07:52:40.900Z,4.47
2022-12-16T07:55:27.966Z,4.60
2022-12-16T07:58:13.333Z,3.90
2022-12-16T08:00:58.872Z,5.40
2022-12-16T08:03:44.248Z,4.87
2022-12-16T08:06:29.722Z,4.60
2022-12-16T08:09:14.971Z,4.10
2022-12-16T08:12:01.574Z,4.43
2022-12-16T08:14:46.997Z,4.23
2022-12-16T08:17:32.314Z,4.10
2022-12-16T08:20:17.863Z,4.37
2022-12-16T08:23:02.391Z,5.03
2022-12-16T08:25:47.705Z,4.13
2022-12-16T08:28:34.208Z,4.00
2022-12-16T08:31:19.516Z,4.07
2022-12-16T08:34:10.185Z,4.60
2022-12-16T08:36:55.337Z,5.20
2022-12-16T08:39:40.708Z,5.20
2022-12-16T08:42:25.880Z,4.83
2022-12-16T08:45:12.316Z,5.10
2022-12-16T08:47:57.314Z,4.90
2022-12-16T08:50:42.803Z,4.93
2022-12-16T08:53:28.255Z,4.63
2022-12-16T08:56:13.548Z,5.07
2022-12-16T08:58:58.896Z,4.93
2022-12-16T09:01:45.529Z,4.37
2022-12-16T09:04:31.247Z,4.60
2022-12-16T09:07:16.364Z,4.13
2022-12-16T09:10:01.792Z,4.30
2022-12-16T09:12:46.815Z,4.57
2022-12-16T09:15:32.255Z,4.00
2022-12-16T09:18:18.954Z,4.03
2022-12-16T09:21:04.159Z,4.27
2022-12-16T09:23:49.550Z,4.10
2022-12-16T09:26:35.000Z,4.03
2022-12-16T09:29:20.533Z,4.07
2022-12-16T09:32:05.940Z,3.40
2022-12-16T09:34:57.803Z,3.67
2022-12-16T09:37:43.041Z,3.30
2022-12-16T09:40:32.231Z,3.47
2022-12-16T09:43:24.941Z,3.80
2022-12-16T09:46:19.248Z,3.13
2022-12-16T09:49:09.895Z,3.47
2022-12-16T09:51:59.365Z,3.63
2022-12-16T09:54:50.412Z,3.73
2022-12-16T09:57:37.962Z,3.63
2022-12-16T10:00:25.965Z,4.03
2022-12-16T10:03:11.815Z,4.22
2022-12-16T10:06:14.226Z,4.00
2022-12-16T10:09:10.082Z,3.90
2022-12-16T10:12:08.709Z,4.00
2022-12-16T10:15:03.061Z,4.00
2022-12-16T10:17:48.111Z,4.33
2022-12-16T10:20:43.304Z,4.20
2022-12-16T10:23:35.903Z,4.20
2022-12-16T10:26:29.589Z,4.30
2022-12-16T10:29:23.770Z,4.57
2022-12-16T10:32:20.763Z,4.90
2022-12-16T10:35:20.679Z,5.93
2022-12-16T10:38:07.020Z,5.20
2022-12-16T10:40:54.319Z,5.63
2022-12-16T10:43:52.913Z,6.67
2022-12-16T10:46:47.145Z,5.30
2022-12-16T10:49:34.760Z,6.17
2022-12-16T10:52:21.012Z,6.63
2022-12-16T10:55:16.562Z,6.63
2022-12-16T10:58:17.803Z,6.20
2022-12-16T11:01:05.950Z,7.30
2022-12-16T11:03:54.506Z,7.28
2022-12-16T11:09:38.679Z,7.03
2022-12-16T11:12:48.871Z,8.10
2022-12-16T11:15:41.814Z,8.57
2022-12-16T11:18:32.524Z,9.33
2022-12-16T11:21:24.963Z,9.10
2022-12-16T11:24:24.522Z,9.20
2022-12-16T11:27:14.030Z,11.13
2022-12-16T11:30:14.192Z,11.07
2022-12-16T11:33:03.942Z,12.43
2022-12-16T11:35:53.052Z,13.53
2022-12-16T11:38:47.573Z,13.20
2022-12-16T11:41:44.640Z,14.60
2022-12-16T11:44:37.590Z,15.03
2022-12-16T11:47:32.067Z,14.23
2022-12-16T11:50:17.460Z,14.37
2022-12-16T11:53:13.318Z,14.30
2022-12-16T11:56:06.897Z,13.97
2022-12-16T11:59:01.645Z,13.93
2022-12-16T12:01:51.263Z,14.23
2022-12-16T12:04:36.809Z,14.10
2022-12-16T12:07:41.107Z,14.33
2022-12-16T12:10:57.196Z,13.60
2022-12-16T12:14:07.393Z,13.80
2022-12-16T12:17:02.006Z,13.93
2022-12-16T12:19:57.476Z,13.77
2022-12-16T12:22:51.312Z,13.50
2022-12-16T12:25:43.766Z,13.27
2022-12-16T12:28:41.890Z,13.97
2022-12-16T12:31:41.817Z,14.48
2022-12-16T12:34:37.791Z,12.97
2022-12-16T12:37:31.381Z,13.70
2022-12-16T12:40:22.949Z,13.47
2022-12-16T12:43:13.826Z,13.37
2022-12-16T12:46:11.962Z,13.60
2022-12-16T12:49:06.482Z,14.27
2022-12-16T12:52:00.443Z,13.87
2022-12-16T12:54:53.236Z,13.10
2022-12-16T12:57:41.489Z,13.97
2022-12-16T13:00:35.374Z,15.27
2022-12-16T13:03:26.341Z,15.90
2022-12-16T13:06:13.029Z,14.17
2022-12-16T13:09:12.627Z,14.40
2022-12-16T13:11:59.131Z,14.60
2022-12-16T13:15:12.255Z,14.23
2022-12-16T13:18:38.372Z,14.17
2022-12-16T13:21:43.946Z,13.93
2022-12-16T13:24:46.379Z,14.17
2022-12-16T13:27:33.982Z,14.70
2022-12-16T13:30:21.467Z,15.90
2022-12-16T13:33:15.792Z,15.03
2022-12-16T13:36:13.060Z,15.27
2022-12-16T13:39:04.857Z,15.60
2022-12-16T13:42:33.420Z,15.00
2022-12-16T13:45:34.833Z,15.47
2022-12-16T13:48:23.985Z,15.63
2022-12-16T13:51:18.461Z,16.07
2022-12-16T13:54:08.372Z,15.90
2022-12-16T13:56:59.555Z,16.53
2022-12-16T13:59:49.777Z,15.83
2022-12-16T14:02:48.930Z,16.20
2022-12-16T14:05:38.375Z,15.27
2022-12-16T14:08:33.233Z,15.43
2022-12-16T14:11:21.610Z,15.63
2022-12-16T14:14:22.671Z,16.40
2022-12-16T14:17:12.004Z,15.33
2022-12-16T14:20:13.068Z,16.30
2022-12-16T14:23:17.923Z,16.13
2022-12-16T14:26:17.490Z,14.50
2022-12-16T14:29:05.373Z,13.97
2022-12-16T14:31:55.171Z,13.63
2022-12-16T14:34:43.272Z,13.67
2022-12-16T14:37:32.344Z,12.40
2022-12-16T14:40:17.520Z,12.50
2022-12-16T14:43:20.969Z,12.77
2022-12-16T14:46:08.751Z,10.77
2022-12-16T14:48:57.780Z,12.73
2022-12-16T14:51:45.827Z,11.45
2022-12-16T14:54:36.591Z,11.35
2022-12-16T14:57:21.934Z,10.93
2022-12-16T15:00:18.975Z,10.23
2022-12-16T15:03:07.585Z,10.83
2022-12-16T15:08:42.497Z,10.25
2022-12-16T15:11:30.782Z,11.07
2022-12-16T15:14:20.079Z,10.57
2022-12-16T15:17:05.037Z,10.13
2022-12-16T15:20:03.112Z,10.17
2022-12-16T15:25:40.342Z,9.53
2022-12-16T15:28:42.303Z,9.33
2022-12-16T15:31:41.549Z,9.30
2022-12-16T15:34:42.721Z,9.07
2022-12-16T15:37:40.356Z,9.03
2022-12-16T15:40:39.452Z,9.13
2022-12-16T15:43:24.856Z,9.80
2022-12-16T15:46:10.266Z,9.27
2022-12-16T15:48:56.585Z,10.27
2022-12-16T15:51:51.411Z,9.80
2022-12-16T15:54:38.967Z,9.97
2022-12-16T15:57:46.030Z,11.53
2022-12-16T16:00:41.543Z,11.77
2022-12-16T16:03:39.668Z,11.77
2022-12-16T16:06:36.212Z,12.05
2022-12-16T16:09:31.209Z,11.53
2022-12-16T16:12:16.553Z,11.43
2022-12-16T16:15:02.732Z,12.57
2022-12-16T16:17:48.167Z,11.77
2022-12-16T16:20:47.011Z,12.03
2022-12-16T16:23:32.495Z,12.40
2022-12-16T16:26:19.632Z,12.43
2022-12-16T16:29:04.921Z,11.97
2022-12-16T16:31:50.036Z,11.30
2022-12-16T16:34:35.572Z,12.20
2022-12-16T16:37:21.412Z,14.20
2022-12-16T16:40:06.828Z,13.83
2022-12-16T16:42:53.273Z,14.60
2022-12-16T16:45:38.700Z,14.33
2022-12-16T16:48:29.417Z,16.13
2022-12-16T16:51:16.097Z,18.10
2022-12-16T16:54:01.391Z,17.27
2022-12-16T16:56:54.932Z,19.77
2022-12-16T16:59:43.082Z,20.53
2022-12-16T17:02:40.521Z,19.38
2022-12-16T17:05:26.915Z,20.00
2022-12-16T17:08:12.419Z,19.30
2022-12-16T17:10:57.764Z,20.20
2022-12-16T17:13:42.759Z,19.30
2022-12-16T17:16:30.084Z,17.87
2022-12-16T17:19:15.701Z,19.73
2022-12-16T17:22:01.142Z,21.90
2022-12-16T17:24:49.321Z,22.40
2022-12-16T17:27:38.954Z,21.00
2022-12-16T17:30:31.195Z,21.63
2022-12-16T17:33:18.108Z,21.43
2022-12-16T17:36:03.175Z,25.90
2022-12-16T17:38:48.369Z,22.70
2022-12-16T17:41:33.633Z,27.37
2022-12-16T17:44:19.140Z,28.60
2022-12-16T17:47:04.368Z,33.10
2022-12-16T17:49:51.055Z,37.70
2022-12-16T17:52:36.430Z,65.33
2022-12-16T17:55:21.782Z,56.77
2022-12-16T17:58:07.238Z,48.77
2022-12-16T18:00:52.553Z,50.40
2022-12-16T18:03:37.528Z,42.87
2022-12-16T18:06:25.012Z,42.90
2022-12-16T18:09:10.534Z,68.77
2022-12-16T18:11:55.978Z,57.70
2022-12-16T18:14:41.324Z,48.43
2022-12-16T18:17:26.489Z,51.73
2022-12-16T18:20:11.545Z,48.40
2022-12-16T18:22:58.082Z,43.80
2022-12-16T18:25:43.505Z,46.07
2022-12-16T18:28:37.032Z,41.47
2022-12-16T18:31:23.184Z,42.60
2022-12-16T18:34:08.302Z,45.67
2022-12-16T18:36:53.589Z,48.17
2022-12-16T18:39:48.758Z,46.70
2022-12-16T18:42:33.822Z,52.50
2022-12-16T18:45:19.201Z,56.07
2022-12-16T18:48:04.664Z,55.00
2022-12-16T18:50:49.596Z,56.50
2022-12-16T18:53:35.062Z,56.80
2022-12-16T18:56:24.727Z,63.80
2022-12-16T18:59:09.802Z,66.93
2022-12-16T19:01:54.959Z,73.33
2022-12-16T19:04:40.236Z,88.83
2022-12-16T19:07:25.629Z,132.83
2022-12-16T19:10:10.990Z,114.77
2022-12-16T19:12:57.535Z,78.47
2022-12-16T19:15:43.098Z,76.57
2022-12-16T19:18:30.409Z,81.07
2022-12-16T19:21:16.471Z,68.23
2022-12-16T19:24:01.884Z,57.90
2022-12-16T19:26:47.167Z,47.10
2022-12-16T19:29:33.818Z,45.17
2022-12-16T19:32:19.386Z,41.53
2022-12-16T19:35:04.518Z,38.03
2022-12-16T19:37:50.534Z,38.33
2022-12-16T19:40:35.872Z,41.23
2022-12-16T19:43:20.349Z,46.57
2022-12-16T19:46:12.015Z,42.60
2022-12-16T19:48:57.541Z,42.27
2022-12-16T19:51:43.202Z,37.53
2022-12-16T19:54:28.510Z,38.80
2022-12-16T19:57:13.783Z,43.33
2022-12-16T19:59:58.949Z,51.97
2022-12-16T20:02:45.608Z,44.07
2022-12-16T20:05:39.315Z,64.70
2022-12-16T20:08:20.853Z,60.50
2022-12-16T20:11:06.308Z,42.10
2022-12-16T20:13:51.285Z,47.20
2022-12-16T20:16:36.992Z,42.97
2022-12-16T20:19:23.494Z,42.10
2022-12-16T20:22:11.795Z,41.50
2022-12-16T20:24:57.675Z,41.85
2022-12-16T20:27:43.154Z,39.13
2022-12-16T20:30:29.574Z,40.70
2022-12-16T20:33:11.089Z,41.80
2022-12-16T20:35:57.492Z,39.83
2022-12-16T20:38:43.057Z,42.80
2022-12-16T20:41:28.035Z,40.60
2022-12-16T20:44:13.226Z,43.77
2022-12-16T20:46:58.507Z,45.07
2022-12-16T20:49:43.838Z,43.17
2022-12-16T20:52:30.607Z,41.60
2022-12-16T20:55:15.944Z,41.73
2022-12-16T20:58:01.257Z,42.67
2022-12-16T21:00:46.574Z,44.87
2022-12-16T21:03:34.096Z,43.13
2022-12-16T21:06:19.531Z,46.10
2022-12-16T21:09:06.031Z,46.87
2022-12-16T21:11:51.392Z,45.07
2022-12-16T21:14:36.695Z,45.70
2022-12-16T21:17:21.160Z,45.13
2022-12-16T21:20:06.422Z,52.77
2022-12-16T21:22:51.572Z,48.50
2022-12-16T21:25:39.703Z,41.50
2022-12-16T21:28:25.098Z,42.17
2022-12-16T21:31:10.169Z,43.50
2022-12-16T21:33:55.651Z,42.87
2022-12-16T21:36:40.696Z,42.13
2022-12-16T21:39:25.961Z,41.60
2022-12-16T21:42:12.613Z,44.20
2022-12-16T21:44:57.862Z,41.17
2022-12-16T21:47:43.162Z,43.93
2022-12-16T21:50:28.603Z,43.73
2022-12-16T21:53:13.914Z,39.27
2022-12-16T21:55:59.285Z,38.57
2022-12-16T21:58:46.026Z,39.47
2022-12-16T22:01:31.444Z,40.63
2022-12-16T22:04:16.685Z,43.53
2022-12-16T22:07:02.114Z,44.37
2022-12-16T22:09:47.280Z,42.20
2022-12-16T22:12:32.604Z,43.23
2022-12-16T22:15:19.313Z,46.07
2022-12-16T22:18:04.656Z,40.30
2022-12-16T22:20:50.042Z,40.80
2022-12-16T22:23:35.380Z,44.73
2022-12-16T22:26:20.894Z,43.40
2022-12-16T22:29:06.200Z,41.77
2022-12-16T22:31:52.802Z,43.67
2022-12-16T22:34:41.961Z,42.73
2022-12-16T22:37:27.340Z,41.97
2022-12-16T22:40:08.896Z,43.63
2022-12-16T22:42:56.277Z,40.83
2022-12-16T22:45:41.651Z,40.93
2022-12-16T22:48:30.195Z,41.93
2022-12-16T22:51:15.558Z,40.45
2022-12-16T22:54:00.853Z,38.57
2022-12-16T22:56:46.249Z,40.23
2022-12-16T22:59:31.585Z,38.03
2022-12-16T23:02:16.977Z,40.00
2022-12-16T23:05:03.692Z,38.83
2022-12-16T23:07:49.120Z,40.67
2022-12-16T23:10:34.537Z,39.00
2022-12-16T23:13:20.012Z,39.60
2022-12-16T23:16:05.503Z,38.90
2022-12-16T23:18:51.013Z,37.40
2022-12-16T23:21:38.295Z,43.07
2022-12-16T23:24:24.279Z,37.13
2022-12-16T23:27:09.615Z,37.17
2022-12-16T23:29:56.580Z,38.87
2022-12-16T23:32:42.661Z,37.43
2022-12-16T23:35:28.131Z,40.57
2022-12-16T23:38:20.259Z,40.30
2022-12-16T23:41:05.658Z,37.93
2022-12-16T23:43:51.014Z,39.17
2022-12-16T23:46:37.338Z,37.20
2022-12-16T23:49:23.005Z,39.47
2022-12-16T23:52:16.886Z,42.70
2022-12-16T23:55:03.350Z,39.73
2022-12-16T23:57:48.289Z,41.30
